Time;durP1;ratioP1;P1;durP2;ratioP2;P2;SDS_P1;SDS_P2;PMS_P1;PMS_P2;Temp;Humidity;BMP_temperature;BMP_pressure;BME280_temperature;BME280_humidity;BME280_pressure;Samples;Min_cycle;Max_cycle;Signal;HPM_P1;HPM_P2
2024/04/21 00:02:15;;;;;;;2.22;1.55;;;;;;;9.27;80.00;101265.56;5473520;26;20535;-64
2024/04/21 00:04:40;;;;;;;1.70;1.30;;;;;;;9.27;79.96;101270.16;5448808;26;20433;-65
2024/04/21 00:07:05;;;;;;;1.40;1.13;;;;;;;9.29;79.88;101267.94;5422980;26;20347;-66
2024/04/21 00:09:31;;;;;;;2.97;1.80;;;;;;;9.23;79.57;101264.66;5435224;26;20071;-64
2024/04/21 00:11:56;;;;;;;2.75;1.27;;;;;;;9.18;79.85;101256.00;5484908;26;20006;-65
2024/04/21 00:14:22;;;;;;;2.33;1.33;;;;;;;9.10;79.87;101263.81;5455634;26;20045;-65
2024/04/21 00:16:47;;;;;;;2.47;1.45;;;;;;;9.10;80.66;101261.13;5453562;26;19998;-65
2024/04/21 00:19:13;;;;;;;3.30;1.40;;;;;;;9.06;80.04;101265.59;5484705;26;19994;-65
2024/04/21 00:21:38;;;;;;;3.67;1.48;;;;;;;9.05;80.65;101268.59;5458544;26;20017;-64
2024/04/21 00:24:04;;;;;;;2.53;1.35;;;;;;;9.01;79.85;101267.69;5453676;26;20002;-64
2024/04/21 00:26:29;;;;;;;1.60;1.15;;;;;;;8.90;80.38;101269.97;5483002;26;20386;-65
2024/04/21 00:28:55;;;;;;;3.03;1.30;;;;;;;8.88;80.99;101266.81;5466533;26;20171;-65
2024/04/21 00:31:21;;;;;;;1.42;1.00;;;;;;;8.91;80.35;101274.25;5429895;26;20375;-66
2024/04/21 00:33:46;;;;;;;1.50;0.95;;;;;;;8.83;80.91;101277.78;5476866;26;20016;-65
2024/04/21 00:36:12;;;;;;;1.48;1.30;;;;;;;8.84;80.58;101276.69;5477169;26;20125;-65
2024/04/21 00:38:37;;;;;;;1.88;1.42;;;;;;;8.78;81.09;101274.50;5420473;26;19994;-65
2024/04/21 00:41:04;;;;;;;1.45;1.05;;;;;;;8.59;80.75;101277.66;5448837;26;20074;-65
2024/04/21 00:43:29;;;;;;;1.08;0.98;;;;;;;8.67;81.26;101284.81;5482018;26;20010;-65
2024/04/21 00:45:55;;;;;;;2.67;1.10;;;;;;;8.65;81.13;101276.31;5447584;26;20013;-66
2024/04/21 00:48:21;;;;;;;1.58;1.13;;;;;;;8.63;81.32;101285.81;5485583;26;20016;-64
2024/04/21 00:50:50;;;;;;;0.82;0.82;;;;;;;8.57;81.02;101279.88;5478292;26;20045;-65
2024/04/21 00:53:17;;;;;;;1.27;1.10;;;;;;;8.56;80.39;101286.31;5483865;26;20464;-67
2024/04/21 00:55:43;;;;;;;1.45;1.13;;;;;;;8.46;80.78;101289.38;5448972;26;20002;-64
2024/04/21 00:58:11;;;;;;;1.48;1.10;;;;;;;8.44;81.73;101302.34;5446875;26;20355;-63
2024/04/21 01:00:37;;;;;;;1.67;1.10;;;;;;;8.37;80.97;101301.28;5469505;26;20038;-64
2024/04/21 01:03:03;;;;;;;2.00;1.15;;;;;;;8.34;81.26;101302.72;5442574;26;20001;-64
2024/04/21 01:05:29;;;;;;;1.27;0.88;;;;;;;8.40;80.46;101304.09;5440411;26;20030;-63
2024/04/21 01:07:55;;;;;;;1.15;0.90;;;;;;;8.40;79.55;101290.69;5450739;26;20030;-63
2024/04/21 01:10:20;;;;;;;0.65;0.60;;;;;;;8.34;79.87;101297.38;5448705;26;20005;-63
2024/04/21 01:12:46;;;;;;;0.77;0.77;;;;;;;8.28;80.23;101292.50;5453035;26;19998;-66
2024/04/21 01:15:11;;;;;;;0.82;0.80;;;;;;;8.16;80.82;101298.50;5485328;26;20359;-63
2024/04/21 01:17:38;;;;;;;1.80;0.98;;;;;;;8.18;81.04;101294.41;5480493;26;20002;-68
2024/04/21 01:20:04;;;;;;;1.92;1.00;;;;;;;8.11;80.73;101294.09;5473795;26;20006;-65
2024/04/21 01:22:29;;;;;;;2.53;0.93;;;;;;;8.09;80.84;101298.22;5435894;26;19998;-65
2024/04/21 01:24:55;;;;;;;0.95;0.82;;;;;;;8.06;81.07;101301.53;5482114;26;19998;-65
2024/04/21 01:27:21;;;;;;;3.65;1.08;;;;;;;8.05;81.38;101299.97;5443239;26;20356;-65
2024/04/21 01:29:47;;;;;;;1.90;1.00;;;;;;;8.05;81.29;101294.63;5482637;26;20005;-65
2024/04/21 01:32:19;;;;;;;1.80;1.38;;;;;;;8.02;81.00;101300.59;5480809;26;19994;-66
2024/04/21 01:34:45;;;;;;;1.08;0.95;;;;;;;7.98;81.40;101305.03;5480445;26;20010;-67
2024/04/21 01:37:10;;;;;;;1.13;0.82;;;;;;;7.93;80.95;101307.91;5478489;26;20010;-65
2024/04/21 01:39:35;;;;;;;1.08;0.77;;;;;;;7.86;81.43;101304.91;5449246;26;20074;-64
2024/04/21 01:42:01;;;;;;;0.73;0.73;;;;;;;7.83;81.43;101319.75;5482394;26;19999;-66
2024/04/21 01:44:26;;;;;;;1.83;1.20;;;;;;;7.85;81.41;101322.13;5483890;26;20033;-64
2024/04/21 01:46:52;;;;;;;1.05;0.95;;;;;;;7.83;80.91;101322.44;5479136;26;20009;-64
2024/04/21 01:49:19;;;;;;;0.82;0.80;;;;;;;7.79;81.27;101318.81;5451206;26;20038;-66
2024/04/21 01:51:44;;;;;;;1.58;1.20;;;;;;;7.80;81.18;101325.75;5474471;26;19999;-65
2024/04/21 01:54:10;;;;;;;11.23;1.02;;;;;;;7.77;81.23;101318.34;5472429;26;20455;-65
2024/04/21 01:56:35;;;;;;;0.90;0.90;;;;;;;7.76;81.08;101324.03;5436464;26;20571;-63
2024/04/21 01:59:00;;;;;;;0.73;0.73;;;;;;;7.75;81.39;101322.44;5449108;26;20013;-63
2024/04/21 02:01:26;;;;;;;0.95;0.88;;;;;;;7.75;81.44;101328.59;5485466;26;20411;-64
2024/04/21 02:03:51;;;;;;;0.93;0.90;;;;;;;7.74;81.28;101334.28;5448310;26;20003;-66
2024/04/21 02:06:17;;;;;;;1.60;1.27;;;;;;;7.70;80.68;101331.47;5483082;26;19998;-65
2024/04/21 02:08:42;;;;;;;0.70;0.70;;;;;;;7.63;81.01;101333.03;5479119;26;20074;-65
2024/04/21 02:11:08;;;;;;;1.05;1.02;;;;;;;7.59;81.22;101335.56;5474127;26;20006;-65
2024/04/21 02:13:36;;;;;;;0.95;0.73;;;;;;;7.53;81.32;101333.38;5483249;26;19998;-64
2024/04/21 02:16:03;;;;;;;2.60;1.20;;;;;;;7.52;81.47;101345.19;5454582;26;20049;-65
2024/04/21 02:18:29;;;;;;;2.15;0.90;;;;;;;7.44;81.54;101344.09;5478348;26;20001;-65
2024/04/21 02:20:54;;;;;;;2.08;1.10;;;;;;;7.43;81.59;101360.50;5438744;26;19998;-66
2024/04/21 02:23:20;;;;;;;1.70;1.17;;;;;;;7.44;81.40;101357.50;5450082;26;20025;-64
2024/04/21 02:25:45;;;;;;;2.25;1.05;;;;;;;7.44;81.40;101356.69;5463951;26;20458;-64
2024/04/21 02:28:10;;;;;;;1.80;1.02;;;;;;;7.42;81.40;101361.59;5449979;26;20047;-67
2024/04/21 02:30:36;;;;;;;1.20;1.00;;;;;;;7.42;81.02;101369.63;5476873;26;20584;-65
2024/04/21 02:33:01;;;;;;;1.30;0.85;;;;;;;7.41;81.14;101371.53;5484418;26;20484;-65
2024/04/21 02:35:27;;;;;;;2.38;1.50;;;;;;;7.35;80.94;101372.78;5460741;26;20013;-66
2024/04/21 02:37:52;;;;;;;1.20;0.98;;;;;;;7.33;80.99;101375.00;5478854;26;19990;-65
2024/04/21 02:40:18;;;;;;;2.65;1.00;;;;;;;7.30;81.04;101386.31;5482121;26;20006;-64
2024/04/21 02:42:43;;;;;;;0.93;0.90;;;;;;;7.29;80.47;101390.13;5466223;26;20486;-66
2024/04/21 02:45:08;;;;;;;1.77;1.13;;;;;;;7.23;80.87;101384.13;5424413;26;20006;-64
2024/04/21 02:47:34;;;;;;;1.35;1.05;;;;;;;7.21;80.89;101389.00;5450023;26;20008;-65
2024/04/21 02:50:02;;;;;;;1.98;1.25;;;;;;;7.22;81.36;101395.94;5452401;26;20001;-65
2024/04/21 02:52:28;;;;;;;1.58;1.10;;;;;;;7.20;80.95;101390.09;5477025;26;20006;-65
2024/04/21 02:54:53;;;;;;;1.17;1.00;;;;;;;7.18;80.83;101408.38;5424731;26;19994;-65
2024/04/21 02:57:18;;;;;;;2.53;1.30;;;;;;;7.10;80.30;101403.78;5455766;26;20051;-65
2024/04/21 02:59:44;;;;;;;1.95;1.17;;;;;;;7.06;80.54;101402.06;5480315;26;20006;-65
2024/04/21 03:02:09;;;;;;;2.25;1.08;;;;;;;6.96;80.58;101397.00;5483322;26;19990;-63
2024/04/21 03:04:35;;;;;;;1.55;1.10;;;;;;;6.94;80.64;101402.66;5481012;26;20006;-65
2024/04/21 03:07:00;;;;;;;2.47;1.42;;;;;;;6.98;79.85;101392.13;5465184;26;20075;-66
2024/04/21 03:09:25;;;;;;;1.88;0.77;;;;;;;6.92;80.05;101409.41;5415458;26;19999;-64
2024/04/21 03:11:51;;;;;;;0.80;0.80;;;;;;;6.84;80.22;101416.34;5481874;26;20002;-65
2024/04/21 03:14:16;;;;;;;1.75;1.00;;;;;;;6.85;80.96;101411.78;5481972;26;20013;-65
2024/04/21 03:16:42;;;;;;;4.00;1.40;;;;;;;6.88;80.78;101408.47;5486233;26;20415;-64
2024/04/21 03:19:07;;;;;;;2.22;1.75;;;;;;;6.90;81.12;101408.94;5469330;26;20003;-64
2024/04/21 03:21:33;;;;;;;2.45;1.50;;;;;;;6.88;81.00;101417.28;5442904;26;19999;-64
2024/04/21 03:23:58;;;;;;;0.80;0.80;;;;;;;6.88;81.24;101425.31;5452283;26;20029;-64
2024/04/21 03:26:24;;;;;;;1.58;1.08;;;;;;;6.91;81.48;101415.88;5445706;26;20002;-65
2024/04/21 03:28:49;;;;;;;2.70;1.50;;;;;;;6.89;81.38;101421.53;5449376;26;20044;-65
2024/04/21 03:31:15;;;;;;;1.65;1.15;;;;;;;6.91;81.24;101429.28;5451193;26;19998;-65
2024/04/21 03:33:40;;;;;;;1.05;1.05;;;;;;;6.98;81.02;101433.06;5452331;26;20346;-66
2024/04/21 03:36:08;;;;;;;1.13;1.10;;;;;;;6.99;81.09;101440.00;5428254;26;20009;-65
2024/04/21 03:38:37;;;;;;;1.23;1.05;;;;;;;7.00;81.17;101436.22;5476020;26;20050;-65
2024/04/21 03:41:04;;;;;;;1.77;1.30;;;;;;;6.97;80.84;101450.22;5483678;26;20002;-64
2024/04/21 03:43:30;;;;;;;2.55;1.08;;;;;;;6.97;81.50;101450.22;5485552;26;19998;-67
2024/04/21 03:45:55;;;;;;;0.98;0.88;;;;;;;6.93;80.97;101451.94;5486415;26;19994;-64
2024/04/21 03:48:22;;;;;;;2.00;1.15;;;;;;;6.92;81.01;101450.38;5452290;26;20003;-64
2024/04/21 03:50:47;;;;;;;2.97;1.42;;;;;;;6.91;80.93;101456.81;5421295;26;20006;-65
2024/04/21 03:53:17;;;;;;;2.08;1.08;;;;;;;6.90;80.65;101457.13;5474618;26;19994;-65
2024/04/21 03:55:42;;;;;;;1.10;1.10;;;;;;;6.89;80.35;101459.00;5452534;26;20065;-66
2024/04/21 03:58:08;;;;;;;1.67;1.10;;;;;;;6.87;80.11;101463.88;5446997;26;20010;-64
2024/04/21 04:00:33;;;;;;;1.38;0.90;;;;;;;6.87;80.32;101461.19;5483204;26;20008;-65
2024/04/21 04:02:59;;;;;;;1.75;1.30;;;;;;;6.84;79.93;101464.50;5480936;26;20362;-65
2024/04/21 04:05:25;;;;;;;1.70;1.10;;;;;;;6.80;79.89;101458.19;5481664;26;19998;-66
2024/04/21 04:07:50;;;;;;;1.20;0.85;;;;;;;6.81;79.72;101473.19;5449961;26;20013;-64
2024/04/21 04:10:16;;;;;;;0.93;0.88;;;;;;;6.79;80.33;101477.25;5454070;26;20048;-65
2024/04/21 04:12:44;;;;;;;2.17;1.30;;;;;;;6.79;80.30;101477.25;5483861;26;20006;-65
2024/04/21 04:15:09;;;;;;;1.77;1.38;;;;;;;6.79;80.42;101472.69;5450087;26;20071;-65
2024/04/21 04:17:35;;;;;;;2.22;1.10;;;;;;;6.76;80.00;101481.31;5418617;26;20460;-65
2024/04/21 04:20:02;;;;;;;0.80;0.80;;;;;;;6.76;79.85;101477.84;5479588;26;20104;-65
2024/04/21 04:22:27;;;;;;;1.02;0.82;;;;;;;6.73;80.29;101479.28;5485281;26;19998;-64
2024/04/21 04:24:53;;;;;;;2.60;1.45;;;;;;;6.75;80.07;101487.00;5445407;26;20431;-64
2024/04/21 04:27:18;;;;;;;3.20;0.90;;;;;;;6.73;80.03;101478.47;5485931;26;20672;-64
2024/04/21 04:29:44;;;;;;;3.45;0.90;;;;;;;6.69;79.53;101485.53;5477485;26;20014;-65
2024/04/21 04:32:09;;;;;;;1.88;1.20;;;;;;;6.73;79.62;101500.69;5479426;26;19999;-65
2024/04/21 04:34:34;;;;;;;3.40;1.35;;;;;;;6.76;79.25;101493.91;5484396;26;19998;-65
2024/04/21 04:37:00;;;;;;;8.38;0.80;;;;;;;6.76;78.97;101494.69;5482440;26;19998;-64
2024/04/21 04:39:25;;;;;;;4.93;1.92;;;;;;;6.73;79.60;101495.34;5480000;26;20427;-64
2024/04/21 04:41:51;;;;;;;1.50;0.90;;;;;;;6.83;79.14;101500.41;5478556;26;20651;-65
2024/04/21 04:44:16;;;;;;;1.20;1.08;;;;;;;6.87;79.00;101509.38;5483336;26;19998;-66
2024/04/21 04:46:42;;;;;;;3.03;1.52;;;;;;;6.96;78.41;101514.78;5464829;26;20026;-66
2024/04/21 04:49:07;;;;;;;3.55;1.40;;;;;;;7.04;78.23;101514.84;5486537;26;20571;-64
2024/04/21 04:51:32;;;;;;;2.00;0.98;;;;;;;7.21;77.51;101528.28;5449451;26;20014;-64
2024/04/21 04:53:58;;;;;;;1.85;1.27;;;;;;;7.34;76.92;101536.53;5442910;26;20034;-64
2024/04/21 04:56:23;;;;;;;3.67;1.42;;;;;;;7.35;76.63;101528.16;5447929;26;20401;-66
2024/04/21 04:58:49;;;;;;;0.85;0.85;;;;;;;7.34;76.23;101536.53;5423912;26;19998;-65
2024/04/21 05:01:14;;;;;;;1.05;1.05;;;;;;;7.41;76.23;101536.84;5424408;26;20100;-64
2024/04/21 05:03:39;;;;;;;1.17;1.00;;;;;;;7.43;75.73;101550.72;5483803;26;19998;-64
2024/04/21 05:06:05;;;;;;;2.35;1.23;;;;;;;7.45;75.46;101543.97;5485361;26;20454;-66
2024/04/21 05:08:30;;;;;;;1.55;1.38;;;;;;;7.38;74.88;101553.53;5484586;26;20463;-64
2024/04/21 05:10:56;;;;;;;2.17;1.08;;;;;;;7.32;75.32;101551.00;5485276;26;20074;-65
2024/04/21 05:13:21;;;;;;;2.15;1.13;;;;;;;7.39;75.42;101555.13;5447926;26;19999;-68
2024/04/21 05:15:47;;;;;;;1.48;1.20;;;;;;;7.32;75.51;101562.84;5481588;26;20008;-65
2024/04/21 05:18:12;;;;;;;0.73;0.73;;;;;;;7.28;74.83;101566.13;5485929;26;20005;-64
2024/04/21 05:20:37;;;;;;;3.28;1.52;;;;;;;7.32;75.66;101577.78;5416209;26;19990;-65
2024/04/21 05:23:03;;;;;;;1.60;1.42;;;;;;;7.22;75.72;101580.75;5480024;26;19995;-65
2024/04/21 05:25:29;;;;;;;1.65;0.82;;;;;;;7.32;75.83;101582.34;5450650;26;19998;-65
2024/04/21 05:27:54;;;;;;;2.05;1.08;;;;;;;7.40;75.77;101583.47;5476372;26;20347;-65
2024/04/21 05:30:19;;;;;;;1.08;0.90;;;;;;;7.59;75.16;101586.72;5418166;26;20479;-66
2024/04/21 05:32:45;;;;;;;0.80;0.80;;;;;;;7.68;74.57;101595.56;5480965;26;20082;-67
2024/04/21 05:35:10;;;;;;;1.45;0.98;;;;;;;7.81;74.46;101589.28;5450288;26;20003;-65
2024/04/21 05:37:36;;;;;;;2.45;1.08;;;;;;;7.85;74.24;101585.66;5484187;26;19998;-66
2024/04/21 05:40:04;;;;;;;1.85;1.02;;;;;;;7.89;73.60;101601.91;5478847;26;20454;-64
2024/04/21 05:42:29;;;;;;;1.00;0.93;;;;;;;8.07;73.31;101595.50;5486060;26;20002;-65
2024/04/21 05:44:54;;;;;;;2.15;1.17;;;;;;;8.41;71.99;101592.03;5453228;26;20070;-65
2024/04/21 05:47:20;;;;;;;2.42;1.25;;;;;;;8.81;70.71;101596.09;5453268;26;20006;-64
2024/04/21 05:49:45;;;;;;;2.15;1.10;;;;;;;9.10;70.01;101599.66;5422131;26;20002;-65
2024/04/21 05:52:14;;;;;;;0.85;0.77;;;;;;;9.43;68.74;101607.09;5453252;26;19998;-64
2024/04/21 05:54:39;;;;;;;1.85;1.13;;;;;;;9.80;66.22;101615.16;5456501;26;20036;-65
2024/04/21 05:57:05;;;;;;;1.00;0.85;;;;;;;10.10;64.42;101618.66;5453620;26;19994;-64
2024/04/21 05:59:30;;;;;;;3.28;1.48;;;;;;;10.17;63.70;101620.78;5483197;26;20062;-63
2024/04/21 06:01:55;;;;;;;1.70;1.02;;;;;;;10.23;63.03;101624.88;5449514;26;20006;-64
2024/04/21 06:04:21;;;;;;;0.80;0.80;;;;;;;10.43;63.47;101619.47;5479818;26;20005;-66
2024/04/21 06:06:47;;;;;;;2.47;1.10;;;;;;;10.68;61.48;101631.94;5477258;26;20039;-63
2024/04/21 06:09:12;;;;;;;1.63;0.77;;;;;;;10.69;60.50;101628.13;5480485;26;20082;-64
2024/04/21 06:11:38;;;;;;;1.38;0.65;;;;;;;10.80;59.96;101629.28;5479406;26;20804;-65
2024/04/21 06:14:07;;;;;;;1.35;1.08;;;;;;;10.95;59.81;101641.38;5422522;26;20381;-66
2024/04/21 06:16:33;;;;;;;1.10;0.98;;;;;;;11.00;60.14;101648.44;5476250;26;20459;-65
2024/04/21 06:18:58;;;;;;;2.97;1.27;;;;;;;11.04;nan;101646.66;5452517;26;20074;-65
2024/04/21 06:21:24;;;;;;;0.98;0.75;;;;;;;11.25;57.33;101652.75;5424017;26;20009;-64
2024/04/21 06:23:49;;;;;;;5.15;0.80;;;;;;;11.15;56.50;101650.53;5447623;26;19999;-64
2024/04/21 06:26:14;;;;;;;2.05;0.85;;;;;;;11.49;55.85;101660.91;5446472;26;20478;-64
2024/04/21 06:28:40;;;;;;;2.05;1.15;;;;;;;11.72;55.17;101662.06;5480456;26;19998;-65
2024/04/21 06:31:05;;;;;;;0.93;0.85;;;;;;;11.79;54.91;101665.00;5481731;26;20002;-66
2024/04/21 06:33:31;;;;;;;1.63;1.05;;;;;;;11.95;54.63;101665.91;5477369;26;20010;-66
2024/04/21 06:35:56;;;;;;;1.95;1.00;;;;;;;11.80;53.76;101677.38;5449849;26;20018;-66
2024/04/21 06:38:21;;;;;;;1.02;0.98;;;;;;;11.78;54.35;101663.44;5484878;26;20014;-66
2024/04/21 06:40:47;;;;;;;1.30;0.77;;;;;;;11.82;53.33;101658.13;5453962;26;20058;-65
2024/04/21 06:43:12;;;;;;;4.75;1.40;;;;;;;11.90;53.25;101665.34;5462225;26;20002;-65
2024/04/21 06:45:45;;;;;;;1.08;0.85;;;;;;;12.05;53.14;101670.03;5454250;26;20396;-65
2024/04/21 06:48:11;;;;;;;2.30;1.40;;;;;;;12.17;53.27;101668.13;5478275;26;20020;-65
2024/04/21 06:50:38;;;;;;;1.95;0.93;;;;;;;12.44;51.69;101686.31;5482556;26;20003;-65
2024/04/21 06:53:04;;;;;;;1.55;0.90;;;;;;;12.43;51.22;101675.81;5484098;26;19990;-65
2024/04/21 06:55:30;;;;;;;1.48;0.88;;;;;;;12.51;51.24;101685.72;5449517;26;20009;-65
2024/04/21 06:57:55;;;;;;;1.08;0.82;;;;;;;12.62;51.02;101687.59;5427361;26;20349;-65
2024/04/21 07:00:21;;;;;;;1.33;0.93;;;;;;;12.62;47.73;101692.19;5483273;26;20014;-65
2024/04/21 07:02:47;;;;;;;1.05;0.70;;;;;;;12.74;47.77;101700.28;5487357;26;19998;-65
2024/04/21 07:05:12;;;;;;;1.73;0.70;;;;;;;12.89;47.24;101694.13;5481091;26;19991;-64
2024/04/21 07:07:38;;;;;;;1.13;0.80;;;;;;;12.91;47.95;101696.53;5486661;26;20012;-65
2024/04/21 07:10:04;;;;;;;2.72;1.10;;;;;;;12.63;48.59;101699.19;5482872;26;20475;-65
2024/04/21 07:12:29;;;;;;;1.42;0.75;;;;;;;12.84;47.64;101710.63;5480663;26;19994;-66
2024/04/21 07:14:55;;;;;;;2.65;0.68;;;;;;;13.04;46.92;101704.25;5487127;26;20016;-64
2024/04/21 07:17:20;;;;;;;0.77;0.70;;;;;;;13.22;47.77;101705.50;5443853;26;20010;-64
2024/04/21 07:19:46;;;;;;;2.47;0.90;;;;;;;13.36;47.50;101713.22;5449723;26;20009;-68
2024/04/21 07:22:12;;;;;;;1.35;0.82;;;;;;;13.37;46.15;101706.69;5485869;26;20005;-65
2024/04/21 07:24:37;;;;;;;1.30;0.93;;;;;;;13.42;46.17;101709.91;5451378;26;20002;-65
2024/04/21 07:27:03;;;;;;;1.60;1.17;;;;;;;13.45;46.37;101717.31;5474518;26;19990;-65
2024/04/21 07:29:28;;;;;;;1.55;0.80;;;;;;;13.74;44.88;101726.97;5476945;26;20080;-65
2024/04/21 07:31:54;;;;;;;0.80;0.80;;;;;;;13.82;44.45;101726.00;5478329;26;19995;-65
2024/04/21 07:34:20;;;;;;;2.28;1.00;;;;;;;13.91;45.71;101723.13;5476420;26;20002;-64
2024/04/21 07:36:45;;;;;;;0.80;0.63;;;;;;;13.90;44.79;101730.44;5453616;26;20033;-66
2024/04/21 07:39:12;;;;;;;0.88;0.70;;;;;;;13.95;44.88;101732.13;5458640;26;20386;-65
2024/04/21 07:41:40;;;;;;;2.20;1.00;;;;;;;13.87;44.96;101736.56;5481585;26;20013;-65
2024/04/21 07:44:06;;;;;;;1.20;0.65;;;;;;;13.86;44.09;101735.00;5444953;26;19998;-64
2024/04/21 07:46:31;;;;;;;0.85;0.82;;;;;;;14.07;43.91;101748.28;5415898;26;19995;-65
2024/04/21 07:48:58;;;;;;;0.45;0.45;;;;;;;13.97;43.20;101741.47;5480493;26;20010;-66
2024/04/21 07:51:23;;;;;;;1.05;0.77;;;;;;;14.10;42.23;101745.66;5475468;26;19998;-65
2024/04/21 07:53:48;;;;;;;1.00;0.73;;;;;;;14.17;41.38;101750.44;5482057;26;20009;-67
2024/04/21 07:56:14;;;;;;;1.02;0.50;;;;;;;14.22;42.34;101750.19;5480130;26;20347;-65
2024/04/21 07:58:39;;;;;;;1.02;0.80;;;;;;;14.00;42.43;101753.50;5424409;26;20014;-65
2024/04/21 08:01:08;;;;;;;0.40;0.40;;;;;;;13.98;43.26;101748.44;5473749;26;20002;-65
2024/04/21 08:03:33;;;;;;;0.88;0.57;;;;;;;14.14;42.01;101749.22;5481869;26;20010;-65
2024/04/21 08:06:02;;;;;;;0.45;0.32;;;;;;;14.35;40.69;101757.88;5480971;26;20009;-64
2024/04/21 08:08:28;;;;;;;1.42;0.60;;;;;;;14.50;41.94;101750.06;5482465;26;20005;-65
2024/04/21 08:10:58;;;;;;;0.80;0.63;;;;;;;14.54;40.63;101754.41;5454846;26;20431;-64
2024/04/21 08:13:23;;;;;;;0.50;0.50;;;;;;;14.34;41.70;101755.53;5456286;26;20742;-64
2024/04/21 08:15:49;;;;;;;0.93;0.57;;;;;;;14.33;41.77;101754.72;5472611;26;20002;-65
2024/04/21 08:18:14;;;;;;;1.30;0.93;;;;;;;14.44;40.37;101754.97;5453770;26;20378;-65
2024/04/21 08:20:40;;;;;;;0.60;0.60;;;;;;;14.40;39.29;101754.88;5484644;26;20002;-65
2024/04/21 08:23:05;;;;;;;1.38;0.60;;;;;;;14.28;39.42;101746.88;5470570;26;20016;-65
2024/04/21 08:25:31;;;;;;;0.88;0.70;;;;;;;14.32;39.89;101755.84;5422191;26;19995;-65
2024/04/21 08:27:56;;;;;;;0.75;0.52;;;;;;;14.37;42.95;101761.03;5471727;26;19999;-66
2024/04/21 08:30:22;;;;;;;1.30;0.63;;;;;;;14.43;40.03;101758.81;5455385;26;20127;-65
2024/04/21 08:32:47;;;;;;;0.45;0.45;;;;;;;14.41;41.31;101767.31;5482766;26;19998;-64
2024/04/21 08:35:13;;;;;;;0.50;0.50;;;;;;;14.52;39.45;101767.53;5481876;26;20010;-65
2024/04/21 08:37:39;;;;;;;0.73;0.60;;;;;;;14.48;41.55;101776.75;5441644;26;19999;-66
2024/04/21 08:40:05;;;;;;;1.27;0.60;;;;;;;14.80;38.95;101775.50;5484020;26;19990;-66
2024/04/21 08:42:37;;;;;;;0.63;0.40;;;;;;;15.00;39.78;101775.16;5449740;26;20006;-65
2024/04/21 08:45:05;;;;;;;1.00;0.55;;;;;;;15.24;39.80;101776.81;5450028;26;20058;-65
2024/04/21 08:47:32;;;;;;;1.35;0.77;;;;;;;15.45;39.31;101777.25;5443839;26;20035;-64
2024/04/21 08:50:00;;;;;;;0.50;0.50;;;;;;;15.49;38.20;101775.38;5474253;26;20347;-65
2024/04/21 08:52:25;;;;;;;1.42;0.50;;;;;;;15.63;37.81;101783.00;5479774;26;20381;-65
2024/04/21 08:54:51;;;;;;;0.60;0.50;;;;;;;15.67;37.44;101773.78;5454923;26;19999;-64
2024/04/21 08:57:19;;;;;;;0.75;0.52;;;;;;;15.58;36.56;101786.03;5453575;26;20025;-64
2024/04/21 08:59:45;;;;;;;0.70;0.65;;;;;;;15.48;36.41;101787.41;5467444;26;20017;-65
2024/04/21 09:02:12;;;;;;;1.20;0.40;;;;;;;15.55;37.77;101781.28;5475483;26;19990;-64
2024/04/21 09:04:41;;;;;;;0.60;0.50;;;;;;;15.81;38.02;101789.53;5483387;26;20012;-64
2024/04/21 09:07:08;;;;;;;1.65;0.80;;;;;;;15.56;36.20;101794.53;5482452;26;19994;-64
2024/04/21 09:09:33;;;;;;;1.00;0.73;;;;;;;15.66;38.11;101790.44;5445556;26;20017;-65
2024/04/21 09:11:59;;;;;;;1.20;0.52;;;;;;;15.81;39.23;101790.34;5483453;26;19994;-64
2024/04/21 09:14:24;;;;;;;1.08;0.65;;;;;;;16.00;38.59;101789.47;5471812;26;20009;-65
2024/04/21 09:16:50;;;;;;;1.23;0.77;;;;;;;16.20;36.88;101796.41;5484517;26;20013;-66
2024/04/21 09:19:15;;;;;;;1.52;0.80;;;;;;;16.08;37.08;101794.66;5452284;26;20347;-65
2024/04/21 09:21:41;;;;;;;1.42;0.90;;;;;;;15.43;36.03;101795.81;5474923;26;20333;-65
2024/04/21 09:24:07;;;;;;;0.80;0.80;;;;;;;15.25;37.79;101794.66;5447885;26;20005;-65
2024/04/21 09:26:36;;;;;;;0.55;0.47;;;;;;;15.13;38.21;101794.81;5471101;26;20009;-65
2024/04/21 09:29:02;;;;;;;0.82;0.60;;;;;;;15.06;39.54;101797.38;5447360;26;20075;-65
2024/04/21 09:31:28;;;;;;;1.58;0.60;;;;;;;15.30;39.77;101792.44;5445933;26;20026;-65
2024/04/21 09:33:55;;;;;;;0.95;0.60;;;;;;;15.36;37.26;101798.38;5480981;26;20014;-65
2024/04/21 09:36:23;;;;;;;1.27;0.50;;;;;;;15.55;38.04;101792.94;5482298;26;20002;-65
2024/04/21 09:38:51;;;;;;;1.58;0.75;;;;;;;15.73;36.75;101812.28;5476622;26;20383;-65
2024/04/21 09:41:17;;;;;;;0.55;0.55;;;;;;;15.65;36.28;101797.78;5483526;26;20067;-65
2024/04/21 09:43:43;;;;;;;0.65;0.60;;;;;;;15.73;36.03;101796.00;5479930;26;20007;-66
2024/04/21 09:46:11;;;;;;;0.40;0.38;;;;;;;15.53;36.39;101797.16;5453865;26;20006;-64
2024/04/21 09:48:37;;;;;;;1.58;0.95;;;;;;;15.54;36.63;101796.81;5477923;26;20081;-64
2024/04/21 09:51:04;;;;;;;0.55;0.45;;;;;;;15.73;35.45;101806.84;5452111;26;19998;-64
2024/04/21 09:53:29;;;;;;;0.45;0.45;;;;;;;15.73;34.97;101794.06;5449877;26;20088;-67
2024/04/21 09:55:56;;;;;;;0.90;0.52;;;;;;;16.07;36.52;101789.56;5482672;26;20676;-65
2024/04/21 09:58:27;;;;;;;2.13;0.82;;;;;;;16.25;34.53;101790.66;5482778;26;19998;-65
2024/04/21 10:00:53;;;;;;;0.73;0.73;;;;;;;16.19;35.51;101792.91;5451093;26;19994;-66
2024/04/21 10:03:19;;;;;;;1.38;0.77;;;;;;;16.43;34.24;101789.00;5448853;26;20451;-66
2024/04/21 10:05:49;;;;;;;0.55;0.40;;;;;;;16.77;37.33;101801.56;5477280;26;20071;-65
2024/04/21 10:08:15;;;;;;;0.57;0.40;;;;;;;17.25;34.97;101794.38;5416311;26;20047;-65
2024/04/21 10:10:43;;;;;;;0.85;0.63;;;;;;;17.52;33.35;101795.09;5483102;26;20469;-65
2024/04/21 10:13:09;;;;;;;1.25;0.38;;;;;;;17.51;33.17;101788.09;5478031;26;20459;-65
2024/04/21 10:15:36;;;;;;;1.20;0.52;;;;;;;17.36;31.65;101797.25;5480524;26;20348;-65
2024/04/21 10:18:02;;;;;;;0.70;0.50;;;;;;;17.68;33.12;101791.00;5449826;26;20006;-64
2024/04/21 10:20:37;;;;;;;1.05;0.60;;;;;;;17.82;32.74;101790.34;5444739;26;20076;-63
2024/04/21 10:23:06;;;;;;;0.80;0.47;;;;;;;17.75;31.91;101788.31;5447802;26;19998;-66
2024/04/21 10:25:33;;;;;;;0.70;0.50;;;;;;;17.41;31.38;101797.69;5478734;26;20173;-66
2024/04/21 10:28:06;;;;;;;0.80;0.50;;;;;;;17.60;34.82;101785.84;5481948;26;19998;-65
2024/04/21 10:30:32;;;;;;;0.47;0.43;;;;;;;18.10;33.36;101789.81;5451834;26;20351;-65
2024/04/21 10:32:59;;;;;;;0.80;0.57;;;;;;;18.16;31.89;101797.25;5476576;26;20006;-64
2024/04/21 10:35:24;;;;;;;0.75;0.57;;;;;;;18.55;33.68;101786.63;5440236;26;19999;-67
2024/04/21 10:37:54;;;;;;;1.60;0.40;;;;;;;18.94;33.26;101798.56;5452675;26;20467;-64
2024/04/21 10:40:20;;;;;;;0.52;0.50;;;;;;;19.24;32.09;101790.09;5454130;26;20040;-65
2024/04/21 10:42:53;;;;;;;0.57;0.40;;;;;;;19.53;32.73;101794.50;5480570;26;20479;-67
2024/04/21 10:45:21;;;;;;;0.95;0.50;;;;;;;19.54;32.20;101796.06;5444155;26;19998;-64
2024/04/21 10:47:47;;;;;;;0.52;0.52;;;;;;;19.25;32.04;101802.56;5453177;26;20363;-64
2024/04/21 10:50:12;;;;;;;0.50;0.30;;;;;;;19.15;34.72;101800.56;5482334;26;20118;-64
2024/04/21 10:52:38;;;;;;;5.43;0.65;;;;;;;19.04;31.83;101802.50;5419161;26;20347;-65
2024/04/21 10:55:06;;;;;;;0.75;0.60;;;;;;;18.78;31.96;101798.88;5446013;26;20408;-66
2024/04/21 10:57:32;;;;;;;1.80;0.60;;;;;;;18.35;31.84;101788.06;5475648;26;20010;-65
2024/04/21 10:59:57;;;;;;;1.48;0.80;;;;;;;17.97;33.27;101795.53;5418120;26;20002;-65
2024/04/21 11:02:23;;;;;;;1.00;0.60;;;;;;;17.57;34.41;101790.09;5479292;26;19998;-65
2024/04/21 11:04:49;;;;;;;0.73;0.50;;;;;;;17.27;35.11;101786.63;5438092;26;20014;-65
2024/04/21 11:07:16;;;;;;;1.48;0.60;;;;;;;17.06;35.18;101795.34;5485031;26;19994;-65
2024/04/21 11:09:41;;;;;;;0.65;0.60;;;;;;;16.94;35.31;101797.50;5487436;26;20002;-67
2024/04/21 11:12:08;;;;;;;1.08;0.65;;;;;;;16.92;35.41;101788.91;5481580;26;20035;-65
2024/04/21 11:14:34;;;;;;;0.63;0.52;;;;;;;16.84;35.47;101784.56;5479938;26;20010;-64
2024/04/21 11:17:01;;;;;;;1.20;0.50;;;;;;;16.86;35.07;101784.97;5485718;26;19994;-65
2024/04/21 11:19:29;;;;;;;0.63;0.45;;;;;;;16.71;35.82;101783.19;5482723;26;20315;-66
2024/04/21 11:21:54;;;;;;;1.52;0.68;;;;;;;16.61;36.11;101791.97;5449228;26;20021;-66
2024/04/21 11:24:20;;;;;;;1.13;0.77;;;;;;;16.61;35.66;101789.25;5487666;26;20002;-67